sensor_id;sensor_type;location;lat;lon;timestamp;temperature;humidity
6186;DHT22;3126;52.738;8.316;2023-05-02T02:11:24;14.10;66.80
6186;DHT22;3126;52.738;8.316;2023-05-02T02:16:30;10.50;99.90
6186;DHT22;3126;52.738;8.316;2023-05-02T03:07:23;10.50;99.90
6186;DHT22;3126;52.738;8.316;2023-05-02T03:12:23;10.10;99.90
6186;DHT22;3126;52.738;8.316;2023-05-02T04:12:35;10.10;99.90
6186;DHT22;3126;52.738;8.316;2023-05-02T04:17:36;8.50;99.90
6186;DHT22;3126;52.738;8.316;2023-05-02T04:27:41;8.40;99.90
6186;DHT22;3126;52.738;8.316;2023-05-02T04:32:42;8.80;99.90
6186;DHT22;3126;52.738;8.316;2023-05-02T08:53:43;8.20;99.90
6186;DHT22;3126;52.738;8.316;2023-05-02T09:29:00;11.20;60.10
6186;DHT22;3126;52.738;8.316;2023-05-02T09:34:12;11.90;54.40
6186;DHT22;3126;52.738;8.316;2023-05-02T09:39:16;12.00;56.50
6186;DHT22;3126;52.738;8.316;2023-05-02T09:44:19;12.40;57.10
6186;DHT22;3126;52.738;8.316;2023-05-02T09:49:40;12.60;55.20
6186;DHT22;3126;52.738;8.316;2023-05-02T09:54:41;12.30;53.30
6186;DHT22;3126;52.738;8.316;2023-05-02T09:59:55;11.80;56.30
6186;DHT22;3126;52.738;8.316;2023-05-02T10:04:56;11.60;58.30
6186;DHT22;3126;52.738;8.316;2023-05-02T10:09:59;11.40;56.80
6186;DHT22;3126;52.738;8.316;2023-05-02T10:15:03;11.30;59.10
6186;DHT22;3126;52.738;8.316;2023-05-02T10:20:05;11.20;57.80
6186;DHT22;3126;52.738;8.316;2023-05-02T10:25:06;10.90;59.30
6186;DHT22;3126;52.738;8.316;2023-05-02T10:30:07;10.60;59.10
6186;DHT22;3126;52.738;8.316;2023-05-02T10:35:09;10.70;60.30
6186;DHT22;3126;52.738;8.316;2023-05-02T10:40:10;10.70;60.90
6186;DHT22;3126;52.738;8.316;2023-05-02T10:45:12;11.00;61.00
6186;DHT22;3126;52.738;8.316;2023-05-02T10:50:54;11.20;59.80
6186;DHT22;3126;52.738;8.316;2023-05-02T11:06:29;11.20;58.60
6186;DHT22;3126;52.738;8.316;2023-05-02T11:11:49;11.30;57.40
6186;DHT22;3126;52.738;8.316;2023-05-02T11:37:53;11.40;57.50
6186;DHT22;3126;52.738;8.316;2023-05-02T11:42:55;11.90;57.20
6186;DHT22;3126;52.738;8.316;2023-05-02T11:47:56;11.80;55.10
6186;DHT22;3126;52.738;8.316;2023-05-02T11:52:57;12.20;54.10
6186;DHT22;3126;52.738;8.316;2023-05-02T11:57:58;12.00;54.30
6186;DHT22;3126;52.738;8.316;2023-05-02T12:02:58;12.30;55.80
6186;DHT22;3126;52.738;8.316;2023-05-02T12:07:59;12.50;53.60
6186;DHT22;3126;52.738;8.316;2023-05-02T12:13:04;11.70;55.00
6186;DHT22;3126;52.738;8.316;2023-05-02T12:18:06;11.80;54.80
6186;DHT22;3126;52.738;8.316;2023-05-02T12:23:07;12.00;55.20
6186;DHT22;3126;52.738;8.316;2023-05-02T12:28:09;12.30;57.10
6186;DHT22;3126;52.738;8.316;2023-05-02T12:33:10;12.60;53.40
6186;DHT22;3126;52.738;8.316;2023-05-02T12:38:19;12.40;53.00
6186;DHT22;3126;52.738;8.316;2023-05-02T12:43:22;12.20;52.20
6186;DHT22;3126;52.738;8.316;2023-05-02T12:48:26;12.40;52.90
6186;DHT22;3126;52.738;8.316;2023-05-02T12:53:43;12.10;56.20
6186;DHT22;3126;52.738;8.316;2023-05-02T12:58:46;11.80;58.90
6186;DHT22;3126;52.738;8.316;2023-05-02T13:03:50;11.70;60.30
6186;DHT22;3126;52.738;8.316;2023-05-02T13:08:50;11.50;60.00
6186;DHT22;3126;52.738;8.316;2023-05-02T13:13:51;11.60;60.10
6186;DHT22;3126;52.738;8.316;2023-05-02T13:18:52;11.90;59.90
6186;DHT22;3126;52.738;8.316;2023-05-02T13:23:52;12.20;59.00
6186;DHT22;3126;52.738;8.316;2023-05-02T13:28:54;12.00;57.70
6186;DHT22;3126;52.738;8.316;2023-05-02T13:33:55;11.80;58.10
6186;DHT22;3126;52.738;8.316;2023-05-02T13:38:56;11.90;59.50
6186;DHT22;3126;52.738;8.316;2023-05-02T13:43:57;11.90;59.60
6186;DHT22;3126;52.738;8.316;2023-05-02T13:48:57;11.60;59.70
6186;DHT22;3126;52.738;8.316;2023-05-02T13:53:58;11.20;62.10
6186;DHT22;3126;52.738;8.316;2023-05-02T13:58:59;11.20;61.90
6186;DHT22;3126;52.738;8.316;2023-05-02T14:04:00;11.20;62.70
6186;DHT22;3126;52.738;8.316;2023-05-02T14:09:06;11.00;62.90
6186;DHT22;3126;52.738;8.316;2023-05-02T14:14:06;10.80;63.80
6186;DHT22;3126;52.738;8.316;2023-05-02T14:19:09;10.90;64.80
6186;DHT22;3126;52.738;8.316;2023-05-02T14:24:09;11.50;63.90
6186;DHT22;3126;52.738;8.316;2023-05-02T14:29:11;11.90;62.60
6186;DHT22;3126;52.738;8.316;2023-05-02T14:34:12;11.80;62.50
6186;DHT22;3126;52.738;8.316;2023-05-02T14:39:13;11.80;60.80
6186;DHT22;3126;52.738;8.316;2023-05-02T14:44:13;11.40;62.40
6186;DHT22;3126;52.738;8.316;2023-05-02T14:49:14;11.20;62.50
6186;DHT22;3126;52.738;8.316;2023-05-02T14:54:14;10.90;64.10
6186;DHT22;3126;52.738;8.316;2023-05-02T14:59:16;10.70;65.40
6186;DHT22;3126;52.738;8.316;2023-05-02T15:04:16;10.80;65.10
6186;DHT22;3126;52.738;8.316;2023-05-02T15:09:19;10.90;65.60
6186;DHT22;3126;52.738;8.316;2023-05-02T15:14:19;11.20;63.70
6186;DHT22;3126;52.738;8.316;2023-05-02T15:19:20;11.30;63.10
6186;DHT22;3126;52.738;8.316;2023-05-02T15:24:29;11.20;61.40
6186;DHT22;3126;52.738;8.316;2023-05-02T15:29:30;11.10;62.40
6186;DHT22;3126;52.738;8.316;2023-05-02T15:34:31;11.00;62.50
6186;DHT22;3126;52.738;8.316;2023-05-02T15:39:31;10.80;63.20
6186;DHT22;3126;52.738;8.316;2023-05-02T15:44:36;10.90;63.50
6186;DHT22;3126;52.738;8.316;2023-05-02T15:49:37;10.90;64.50
6186;DHT22;3126;52.738;8.316;2023-05-02T15:54:37;11.30;65.10
6186;DHT22;3126;52.738;8.316;2023-05-02T15:59:38;11.30;62.30
6186;DHT22;3126;52.738;8.316;2023-05-02T16:04:39;11.10;62.80
6186;DHT22;3126;52.738;8.316;2023-05-02T16:09:39;10.80;64.60
6186;DHT22;3126;52.738;8.316;2023-05-02T16:14:41;10.70;64.60
6186;DHT22;3126;52.738;8.316;2023-05-02T16:19:42;10.70;64.20
6186;DHT22;3126;52.738;8.316;2023-05-02T16:24:43;10.70;65.50
6186;DHT22;3126;52.738;8.316;2023-05-02T16:29:43;10.80;65.30
6186;DHT22;3126;52.738;8.316;2023-05-02T16:34:44;10.80;66.40
6186;DHT22;3126;52.738;8.316;2023-05-02T16:39:44;10.90;65.50
6186;DHT22;3126;52.738;8.316;2023-05-02T16:44:45;10.90;65.40
6186;DHT22;3126;52.738;8.316;2023-05-02T16:49:46;10.70;66.90
6186;DHT22;3126;52.738;8.316;2023-05-02T16:54:51;10.70;68.00
6186;DHT22;3126;52.738;8.316;2023-05-02T16:59:52;10.60;69.20
6186;DHT22;3126;52.738;8.316;2023-05-02T17:04:52;10.70;70.90
6186;DHT22;3126;52.738;8.316;2023-05-02T17:09:53;10.60;70.20
6186;DHT22;3126;52.738;8.316;2023-05-02T17:14:53;10.60;70.00
6186;DHT22;3126;52.738;8.316;2023-05-02T17:19:54;10.40;69.50
6186;DHT22;3126;52.738;8.316;2023-05-02T17:29:56;10.30;70.50
6186;DHT22;3126;52.738;8.316;2023-05-02T17:34:56;10.20;66.80
6186;DHT22;3126;52.738;8.316;2023-05-02T17:39:57;10.10;67.80
